AirNav   ATP
 
 441 users online  

7T0 Freedom Field Airport
Lindsay, Texas, USA

GOING TO LINDSAY?


FAA INFORMATION EFFECTIVE 21 JUNE 2018

Location

FAA Identifier: 7T0
Lat/Long: 33-35-37.0000N / 097-13-08.0000W
33-35.616667N / 097-13.133333W
33.5936111 / -97.2188889
(estimated)
Elevation: 885 ft. / 270 m (estimated)
Variation: 07E (1985)
From city: 3 miles S of LINDSAY, TX
Time zone: UTC -5 (UTC -6 during Standard Time)
Zip code: 76240

Airport Operations

Airport use: Open to the public
Activation date: 06/1979
Control tower: no
ARTCC: FORT WORTH CENTER
FSS: FORT WORTH FLIGHT SERVICE STATION
NOTAMs facility: FTW (NOTAM-D service available)
Attendance: UNATNDD
Wind indicator: yes
Segmented circle: no

Airport Communications

CTAF: 122.9
WX AWOS-3 at GLE (4 nm N): 118.375 (940-612-3549)

Nearby radio navigation aids

VOR radial/distance  VOR name  Freq  Var
UKWr077/30.3BOWIE VORTAC117.1506E
ADMr178/37.2ARDMORE VORTAC116.7006E

 
NDB name  Hdg/Dist  Freq  Var  ID
GRINDSTONE MOUNTAIN084/27.735607EGMZ --. -- --..
DENISON237/30.834106EDNI -.. -. ..
MELISA299/37.342103EVLY ...- .-.. -.--

Airport Services

Runway Information

Runway 17/35

Dimensions: 2400 x 60 ft. / 732 x 18 m
Surface: turf, in good condition
RUNWAY 17  RUNWAY 35
Latitude: 33-35.815167N33-35.419463N
Longitude: 097-13.126958W097-13.138415W
Elevation: 881.0 ft.879.0 ft.
Traffic pattern: rightleft
Runway heading: 174 magnetic, 181 true354 magnetic, 001 true
Obstructions: 15 ft. road, 25 ft. from runway, 1:1 slope to clear15 ft. road, 50 ft. from runway, 3:1 slope to clear

Airport Ownership and Management from official FAA records

Ownership: Privately-owned
Owner: FREEDOM FIELD INC
BOX 160
LINDSAY, TX 76252
Phone (940) 736-6464
Manager: TOM SCHAD
2961 FM 1630
GAINESVILLE, TX 76240

Airport Operational Statistics

Aircraft based on the field: 20
Single engine airplanes: 20
    
Aircraft operations: avg 56/week *
86% local general aviation
14% transient general aviation
* for 12-month period ending 30 June 2016

Additional Remarks

OCNL LIVESTOCK ON RY.
+40 FT POLE 80 FT LEFT 60 FT FROM RY 17.
NO STUDENT TRAFFIC

Instrument Procedures

There are no published instrument procedures at 7T0.

Some nearby airports with instrument procedures:

KGLE - Gainesville Municipal Airport (4 nm N)
KDTO - Denton Enterprise Airport (24 nm S)
KLUD - Decatur Municipal Airport (27 nm SW)
0F2 - Bowie Municipal Airport (28 nm W)
KGYI - North Texas Regional Airport/Perrin Field (28 nm E)
 
Loc | Ops | Rwys | IFR | FBO | Links
Com | Nav | Svcs | Stats | Notes


 
Area around 7T0 (Freedom Field Airport)
 
Road maps at: MapQuest Bing Google
 
Aerial photo
WARNING: Photo may not be current or correct
Aerial photo of 7T0 (Freedom Field Airport)
Do you have a better or more recent aerial photo of Freedom Field Airport that you would like to share? If so, please send us your photo.

 
Sectional chart

 
Airport distance calculator
Flying to Freedom Field Airport? Find the distance to fly.

From to 7T0

Sunrise and sunset
Times for 18-Jul-2018
 Local
(UTC-5)
 Zulu
(UTC)
Morning civil twilight06:0411:04
Sunrise06:3311:33
Sunset20:3801:38
Evening civil twilight21:0602:06

Current date and time
Zulu (UTC)  18-Jul-2018 05:59:52
Local (UTC-5)  18-Jul-2018 00:59:52
 
METAR
KGLE 
4nm N 
180535Z AUTO 16005KT 7SM CLR 28/18 A2996 RMK AO2 T02750181
TAF
KAFW 
38nm S 
180259Z 1803/1824 17008KT P6SM FEW300
KDFW 
43nm S 
180259Z 1803/1906 18009KT P6SM FEW300
KFTW 
46nm S 
180259Z 1803/1824 17009KT P6SM FEW300
NOTAMs
Click for the latest NOTAMs
NOTAMs are issued by the DoD/FAA and will open in a separate window not controlled by AirNav.

 

 
 

Would you like to see your business listed on this page?

 If your business provides an interesting product or service to pilots, flight crews, aircraft, or users of the Freedom Field Airport, you should consider listing it here.  To start the listing process, click on the button below
 
Add a business
 

Other Pages about Freedom Field Airport

Update a link
 
Copyright © AirNav, LLC. All rights reserved. Privacy Policy  Contact